Impacts TAF Board
For situational awareness. Not to be used for flight planning purposes.
IDs:

KDCA - Washington/National, VA, US

Issued at 2042 UTC 23 Sep 2018
Updated at 2048 UTC 23 Sep 2018
Potential Impact None Slight Moderate High
Time<<24/09Z 24/10Z 24/11Z 24/12Z 24/13Z 24/14Z 24/15Z 24/16Z 24/17Z 24/18Z 24/19Z 24/20Z 24/21Z>>
Type PRVL PRVL PRVL PRVL PRVL PRVL PRVL PRVL PRVL PRVL PRVL PRVL PRVL
VIS 3 3 3 5 5 5 5 5 5 6 6 6 6
CIG 8 8 8 8 8 8 8 8 8 10 10 10 10
Cover OVC OVC OVC OVC OVC OVC OVC OVC OVC OVC OVC OVC OVC
FltCat IFR IFR IFR IFR IFR IFR IFR IFR IFR MVFR MVFR MVFR MVFR
WX -DZ BR BR BR -RA -RA -RA -RA -RA -RA -RA -RA -RA -RA
WDir 40 50 50 60 60 60 60 60 60 80 80 80 80
WSpd 6 8 8 7 7 7 7 7 7 9 9 9 11
WGst -- -- -- -- -- -- -- -- -- -- -- -- 24
Raw TAF
KDCA 232042Z 2321/2424 05011KT 3SM -RA BR OVC008
  FM240600 04006KT 3SM -DZ BR SCT003 OVC008
  FM241000 05008KT 3SM BR SCT003 OVC008
  FM241200 06007KT 5SM -RA OVC008
  FM241800 08009KT 6SM -RA SCT008 OVC010
  FM242100 08011G24KT 6SM -RA SCT008 OVC010


METAR Board
Radar Display
Forecast Discussion
For situational awareness. Not to be used for flight planning purposes.